sensor_id;sensor_type;location;lat;lon;timestamp;temperature;humidity
16229;DHT22;8222;51.462;12.630;2022-12-05T00:01:49;5.30;99.90
16229;DHT22;8222;51.462;12.630;2022-12-05T00:04:15;5.20;99.90
16229;DHT22;8222;51.462;12.630;2022-12-05T00:06:42;5.30;99.90
16229;DHT22;8222;51.462;12.630;2022-12-05T00:09:10;5.30;99.90
16229;DHT22;8222;51.462;12.630;2022-12-05T00:11:38;5.30;99.90
16229;DHT22;8222;51.462;12.630;2022-12-05T00:14:09;5.40;99.90
16229;DHT22;8222;51.462;12.630;2022-12-05T00:16:37;5.20;99.90
16229;DHT22;8222;51.462;12.630;2022-12-05T00:19:05;5.30;99.90
16229;DHT22;8222;51.462;12.630;2022-12-05T00:21:34;5.40;99.90
16229;DHT22;8222;51.462;12.630;2022-12-05T00:24:03;5.50;99.90
16229;DHT22;8222;51.462;12.630;2022-12-05T00:26:29;5.50;99.90
16229;DHT22;8222;51.462;12.630;2022-12-05T00:28:55;5.50;99.90
16229;DHT22;8222;51.462;12.630;2022-12-05T00:31:23;5.50;99.90
16229;DHT22;8222;51.462;12.630;2022-12-05T00:33:52;6.30;99.90
16229;DHT22;8222;51.462;12.630;2022-12-05T00:36:21;5.50;99.90
16229;DHT22;8222;51.462;12.630;2022-12-05T00:38:47;5.50;99.90
16229;DHT22;8222;51.462;12.630;2022-12-05T00:41:15;5.60;99.90
16229;DHT22;8222;51.462;12.630;2022-12-05T00:43:42;5.70;99.90
16229;DHT22;8222;51.462;12.630;2022-12-05T00:46:10;5.70;99.90
16229;DHT22;8222;51.462;12.630;2022-12-05T00:48:36;5.60;99.90
16229;DHT22;8222;51.462;12.630;2022-12-05T00:51:25;5.60;99.90
16229;DHT22;8222;51.462;12.630;2022-12-05T00:53:53;5.50;99.90
16229;DHT22;8222;51.462;12.630;2022-12-05T00:56:21;5.60;99.90
16229;DHT22;8222;51.462;12.630;2022-12-05T00:58:49;5.60;99.90
16229;DHT22;8222;51.462;12.630;2022-12-05T01:03:43;5.80;99.90
16229;DHT22;8222;51.462;12.630;2022-12-05T01:06:09;5.70;99.90
16229;DHT22;8222;51.462;12.630;2022-12-05T01:08:35;5.60;99.90
16229;DHT22;8222;51.462;12.630;2022-12-05T01:11:02;5.60;99.90
16229;DHT22;8222;51.462;12.630;2022-12-05T01:13:29;5.70;99.90
16229;DHT22;8222;51.462;12.630;2022-12-05T01:15:55;5.80;99.90
16229;DHT22;8222;51.462;12.630;2022-12-05T01:18:22;5.70;99.90
16229;DHT22;8222;51.462;12.630;2022-12-05T01:20:50;5.70;99.90
16229;DHT22;8222;51.462;12.630;2022-12-05T01:23:17;5.70;99.90
16229;DHT22;8222;51.462;12.630;2022-12-05T01:25:45;5.60;99.90
16229;DHT22;8222;51.462;12.630;2022-12-05T01:28:12;5.70;99.90
16229;DHT22;8222;51.462;12.630;2022-12-05T01:30:41;5.60;99.90
16229;DHT22;8222;51.462;12.630;2022-12-05T01:33:07;6.10;99.90
16229;DHT22;8222;51.462;12.630;2022-12-05T01:35:35;5.80;99.90
16229;DHT22;8222;51.462;12.630;2022-12-05T01:38:01;5.90;99.90
16229;DHT22;8222;51.462;12.630;2022-12-05T01:40:27;5.80;99.90
16229;DHT22;8222;51.462;12.630;2022-12-05T01:42:53;5.90;99.90
16229;DHT22;8222;51.462;12.630;2022-12-05T01:45:30;5.80;99.90
16229;DHT22;8222;51.462;12.630;2022-12-05T01:47:57;5.90;99.90
16229;DHT22;8222;51.462;12.630;2022-12-05T01:50:26;5.80;99.90
16229;DHT22;8222;51.462;12.630;2022-12-05T01:52:52;6.00;99.90
16229;DHT22;8222;51.462;12.630;2022-12-05T01:55:19;5.90;99.90
16229;DHT22;8222;51.462;12.630;2022-12-05T01:57:47;5.90;99.90
16229;DHT22;8222;51.462;12.630;2022-12-05T02:00:16;6.10;99.90
16229;DHT22;8222;51.462;12.630;2022-12-05T02:02:48;6.00;99.90
16229;DHT22;8222;51.462;12.630;2022-12-05T02:05:32;5.90;99.90
16229;DHT22;8222;51.462;12.630;2022-12-05T02:08:01;5.90;99.90
16229;DHT22;8222;51.462;12.630;2022-12-05T02:10:37;6.10;99.90
16229;DHT22;8222;51.462;12.630;2022-12-05T02:32:33;6.10;99.90
16229;DHT22;8222;51.462;12.630;2022-12-05T02:43:44;6.30;99.90
16229;DHT22;8222;51.462;12.630;2022-12-05T02:46:15;6.20;99.90
16229;DHT22;8222;51.462;12.630;2022-12-05T02:48:44;6.30;99.90
16229;DHT22;8222;51.462;12.630;2022-12-05T02:51:14;6.60;99.90
16229;DHT22;8222;51.462;12.630;2022-12-05T02:53:43;6.30;99.90
16229;DHT22;8222;51.462;12.630;2022-12-05T02:56:10;7.00;99.90
16229;DHT22;8222;51.462;12.630;2022-12-05T02:58:43;6.40;99.90
16229;DHT22;8222;51.462;12.630;2022-12-05T03:01:13;6.40;99.90
16229;DHT22;8222;51.462;12.630;2022-12-05T03:03:39;6.30;99.90
16229;DHT22;8222;51.462;12.630;2022-12-05T03:06:14;6.50;99.90
16229;DHT22;8222;51.462;12.630;2022-12-05T03:08:44;6.40;99.90
16229;DHT22;8222;51.462;12.630;2022-12-05T03:11:11;5.20;99.90
16229;DHT22;8222;51.462;12.630;2022-12-05T03:13:55;6.20;99.90
16229;DHT22;8222;51.462;12.630;2022-12-05T03:16:28;6.30;99.90
16229;DHT22;8222;51.462;12.630;2022-12-05T03:19:04;6.70;99.90
16229;DHT22;8222;51.462;12.630;2022-12-05T03:21:36;6.50;99.90
16229;DHT22;8222;51.462;12.630;2022-12-05T03:24:12;6.40;99.90
16229;DHT22;8222;51.462;12.630;2022-12-05T03:29:49;6.30;99.90
16229;DHT22;8222;51.462;12.630;2022-12-05T03:32:44;6.40;99.90
16229;DHT22;8222;51.462;12.630;2022-12-05T03:38:00;6.40;99.90
16229;DHT22;8222;51.462;12.630;2022-12-05T03:40:46;6.40;99.90
16229;DHT22;8222;51.462;12.630;2022-12-05T03:45:48;6.50;99.90
16229;DHT22;8222;51.462;12.630;2022-12-05T03:48:30;6.50;99.90
16229;DHT22;8222;51.462;12.630;2022-12-05T03:51:00;6.40;99.90
16229;DHT22;8222;51.462;12.630;2022-12-05T03:53:36;6.40;99.90
16229;DHT22;8222;51.462;12.630;2022-12-05T03:56:08;6.50;99.90
16229;DHT22;8222;51.462;12.630;2022-12-05T03:58:40;6.40;99.90
16229;DHT22;8222;51.462;12.630;2022-12-05T04:01:09;6.50;99.90
16229;DHT22;8222;51.462;12.630;2022-12-05T04:03:48;7.00;99.90
16229;DHT22;8222;51.462;12.630;2022-12-05T04:06:29;6.50;99.90
16229;DHT22;8222;51.462;12.630;2022-12-05T04:08:59;6.30;99.90
16229;DHT22;8222;51.462;12.630;2022-12-05T04:11:30;7.10;99.90
16229;DHT22;8222;51.462;12.630;2022-12-05T04:14:01;6.40;99.90
16229;DHT22;8222;51.462;12.630;2022-12-05T04:17:01;6.30;99.90
16229;DHT22;8222;51.462;12.630;2022-12-05T04:19:43;6.40;99.90
16229;DHT22;8222;51.462;12.630;2022-12-05T04:22:33;6.60;99.90
16229;DHT22;8222;51.462;12.630;2022-12-05T04:25:02;6.30;99.90
16229;DHT22;8222;51.462;12.630;2022-12-05T04:28:10;6.30;99.90
16229;DHT22;8222;51.462;12.630;2022-12-05T04:33:15;6.50;99.90
16229;DHT22;8222;51.462;12.630;2022-12-05T04:38:50;6.60;99.90
16229;DHT22;8222;51.462;12.630;2022-12-05T04:41:24;6.40;99.90
16229;DHT22;8222;51.462;12.630;2022-12-05T04:43:53;6.40;99.90
16229;DHT22;8222;51.462;12.630;2022-12-05T04:46:21;6.40;99.90
16229;DHT22;8222;51.462;12.630;2022-12-05T04:48:52;6.30;99.90
16229;DHT22;8222;51.462;12.630;2022-12-05T04:51:25;6.30;99.90
16229;DHT22;8222;51.462;12.630;2022-12-05T04:54:00;6.30;99.90
16229;DHT22;8222;51.462;12.630;2022-12-05T04:56:33;6.30;99.90
16229;DHT22;8222;51.462;12.630;2022-12-05T04:59:00;6.20;99.90
16229;DHT22;8222;51.462;12.630;2022-12-05T05:01:49;6.40;99.90
16229;DHT22;8222;51.462;12.630;2022-12-05T05:07:11;6.40;99.90
16229;DHT22;8222;51.462;12.630;2022-12-05T05:09:40;6.50;99.90
16229;DHT22;8222;51.462;12.630;2022-12-05T05:12:06;6.60;99.90
16229;DHT22;8222;51.462;12.630;2022-12-05T05:14:34;6.60;99.90
16229;DHT22;8222;51.462;12.630;2022-12-05T05:17:00;6.50;99.90
16229;DHT22;8222;51.462;12.630;2022-12-05T05:19:28;6.50;99.90
16229;DHT22;8222;51.462;12.630;2022-12-05T05:21:53;6.60;99.90
16229;DHT22;8222;51.462;12.630;2022-12-05T05:24:20;6.90;99.90
16229;DHT22;8222;51.462;12.630;2022-12-05T05:26:51;6.60;99.90
16229;DHT22;8222;51.462;12.630;2022-12-05T05:29:18;6.80;99.90
16229;DHT22;8222;51.462;12.630;2022-12-05T05:31:44;6.90;99.90
16229;DHT22;8222;51.462;12.630;2022-12-05T05:34:12;7.00;99.90
16229;DHT22;8222;51.462;12.630;2022-12-05T05:36:40;6.90;99.90
16229;DHT22;8222;51.462;12.630;2022-12-05T05:39:11;6.90;99.90
16229;DHT22;8222;51.462;12.630;2022-12-05T05:41:37;6.90;99.90
16229;DHT22;8222;51.462;12.630;2022-12-05T05:44:04;7.00;99.90
16229;DHT22;8222;51.462;12.630;2022-12-05T05:46:32;7.00;99.90
16229;DHT22;8222;51.462;12.630;2022-12-05T05:48:58;6.90;99.90
16229;DHT22;8222;51.462;12.630;2022-12-05T05:51:24;6.90;99.90
16229;DHT22;8222;51.462;12.630;2022-12-05T05:53:52;7.00;99.90
16229;DHT22;8222;51.462;12.630;2022-12-05T05:56:20;7.10;99.90
16229;DHT22;8222;51.462;12.630;2022-12-05T05:58:46;6.80;99.90
16229;DHT22;8222;51.462;12.630;2022-12-05T06:01:16;6.80;99.90
16229;DHT22;8222;51.462;12.630;2022-12-05T06:03:42;6.90;99.90
16229;DHT22;8222;51.462;12.630;2022-12-05T06:06:10;7.00;99.90
16229;DHT22;8222;51.462;12.630;2022-12-05T06:08:38;7.00;99.90
16229;DHT22;8222;51.462;12.630;2022-12-05T06:11:08;7.00;99.90
16229;DHT22;8222;51.462;12.630;2022-12-05T06:13:35;7.00;99.90
16229;DHT22;8222;51.462;12.630;2022-12-05T06:16:07;7.10;99.90
16229;DHT22;8222;51.462;12.630;2022-12-05T06:18:33;7.10;99.90
16229;DHT22;8222;51.462;12.630;2022-12-05T06:20:59;7.00;99.90
16229;DHT22;8222;51.462;12.630;2022-12-05T06:23:27;7.00;99.90
16229;DHT22;8222;51.462;12.630;2022-12-05T06:25:56;7.00;99.90
16229;DHT22;8222;51.462;12.630;2022-12-05T06:28:23;7.00;99.90
16229;DHT22;8222;51.462;12.630;2022-12-05T06:30:51;7.00;99.90
16229;DHT22;8222;51.462;12.630;2022-12-05T06:33:17;7.00;99.90
16229;DHT22;8222;51.462;12.630;2022-12-05T06:35:46;7.00;99.90
16229;DHT22;8222;51.462;12.630;2022-12-05T06:38:12;7.60;99.90
16229;DHT22;8222;51.462;12.630;2022-12-05T06:40:42;7.10;99.90
16229;DHT22;8222;51.462;12.630;2022-12-05T06:43:10;7.00;99.90
16229;DHT22;8222;51.462;12.630;2022-12-05T06:45:39;7.10;99.90
16229;DHT22;8222;51.462;12.630;2022-12-05T06:48:07;7.10;99.90
16229;DHT22;8222;51.462;12.630;2022-12-05T06:50:33;8.00;99.90
16229;DHT22;8222;51.462;12.630;2022-12-05T06:52:58;7.20;99.90
16229;DHT22;8222;51.462;12.630;2022-12-05T06:55:24;7.20;99.90
16229;DHT22;8222;51.462;12.630;2022-12-05T06:57:50;7.20;99.90
16229;DHT22;8222;51.462;12.630;2022-12-05T07:00:17;7.10;99.90
16229;DHT22;8222;51.462;12.630;2022-12-05T07:03:03;7.20;99.90
16229;DHT22;8222;51.462;12.630;2022-12-05T07:05:29;7.30;99.90
16229;DHT22;8222;51.462;12.630;2022-12-05T07:07:54;7.30;99.90
16229;DHT22;8222;51.462;12.630;2022-12-05T07:10:22;7.20;99.90
16229;DHT22;8222;51.462;12.630;2022-12-05T07:12:49;7.20;99.90
16229;DHT22;8222;51.462;12.630;2022-12-05T07:15:17;7.10;99.90
16229;DHT22;8222;51.462;12.630;2022-12-05T07:17:45;7.10;99.90
16229;DHT22;8222;51.462;12.630;2022-12-05T07:20:10;7.10;99.90
16229;DHT22;8222;51.462;12.630;2022-12-05T07:22:37;7.00;99.90
16229;DHT22;8222;51.462;12.630;2022-12-05T07:25:03;7.00;99.90
16229;DHT22;8222;51.462;12.630;2022-12-05T07:27:29;7.00;99.90
16229;DHT22;8222;51.462;12.630;2022-12-05T07:29:55;7.10;99.90
16229;DHT22;8222;51.462;12.630;2022-12-05T07:32:22;7.00;99.90
16229;DHT22;8222;51.462;12.630;2022-12-05T07:34:48;6.90;99.90
16229;DHT22;8222;51.462;12.630;2022-12-05T07:37:18;7.00;99.90
16229;DHT22;8222;51.462;12.630;2022-12-05T07:39:46;7.00;99.90
16229;DHT22;8222;51.462;12.630;2022-12-05T07:42:11;7.90;99.90
16229;DHT22;8222;51.462;12.630;2022-12-05T07:44:37;7.20;99.90
16229;DHT22;8222;51.462;12.630;2022-12-05T07:47:06;7.30;99.90
16229;DHT22;8222;51.462;12.630;2022-12-05T07:49:31;7.20;99.90
16229;DHT22;8222;51.462;12.630;2022-12-05T07:51:57;7.30;99.90
16229;DHT22;8222;51.462;12.630;2022-12-05T07:54:22;7.10;99.90
16229;DHT22;8222;51.462;12.630;2022-12-05T07:56:48;7.20;99.90
16229;DHT22;8222;51.462;12.630;2022-12-05T07:59:14;7.10;99.90
16229;DHT22;8222;51.462;12.630;2022-12-05T08:01:39;7.20;99.90
16229;DHT22;8222;51.462;12.630;2022-12-05T08:04:05;7.20;99.90
16229;DHT22;8222;51.462;12.630;2022-12-05T08:06:33;7.30;99.90
16229;DHT22;8222;51.462;12.630;2022-12-05T08:08:59;7.30;99.90
16229;DHT22;8222;51.462;12.630;2022-12-05T08:11:29;7.30;99.90
16229;DHT22;8222;51.462;12.630;2022-12-05T08:13:59;7.40;99.90
16229;DHT22;8222;51.462;12.630;2022-12-05T08:16:27;7.30;99.90
16229;DHT22;8222;51.462;12.630;2022-12-05T08:18:58;7.40;99.90
16229;DHT22;8222;51.462;12.630;2022-12-05T08:21:24;7.90;99.90
16229;DHT22;8222;51.462;12.630;2022-12-05T08:23:50;7.50;99.90
16229;DHT22;8222;51.462;12.630;2022-12-05T08:26:18;7.60;99.90
16229;DHT22;8222;51.462;12.630;2022-12-05T08:28:45;7.50;99.90
16229;DHT22;8222;51.462;12.630;2022-12-05T08:31:16;7.60;99.90
16229;DHT22;8222;51.462;12.630;2022-12-05T08:33:43;7.70;99.90
16229;DHT22;8222;51.462;12.630;2022-12-05T08:36:12;7.70;99.90
16229;DHT22;8222;51.462;12.630;2022-12-05T08:38:38;7.80;99.90
16229;DHT22;8222;51.462;12.630;2022-12-05T08:41:07;7.70;99.90
16229;DHT22;8222;51.462;12.630;2022-12-05T08:43:35;7.70;99.90
16229;DHT22;8222;51.462;12.630;2022-12-05T08:46:01;7.80;99.90
16229;DHT22;8222;51.462;12.630;2022-12-05T08:48:28;7.80;99.90
16229;DHT22;8222;51.462;12.630;2022-12-05T08:50:54;7.80;99.90
16229;DHT22;8222;51.462;12.630;2022-12-05T08:53:22;7.90;99.90
16229;DHT22;8222;51.462;12.630;2022-12-05T08:55:48;7.80;99.90
16229;DHT22;8222;51.462;12.630;2022-12-05T08:58:15;7.70;99.90
16229;DHT22;8222;51.462;12.630;2022-12-05T09:00:41;7.80;99.90
16229;DHT22;8222;51.462;12.630;2022-12-05T09:03:10;7.80;99.90
16229;DHT22;8222;51.462;12.630;2022-12-05T09:05:35;7.80;99.90
16229;DHT22;8222;51.462;12.630;2022-12-05T09:08:03;7.80;99.90
16229;DHT22;8222;51.462;12.630;2022-12-05T09:10:29;7.80;99.90
16229;DHT22;8222;51.462;12.630;2022-12-05T09:12:58;7.80;99.90
16229;DHT22;8222;51.462;12.630;2022-12-05T09:15:24;7.80;99.90
16229;DHT22;8222;51.462;12.630;2022-12-05T09:17:49;7.90;99.90
16229;DHT22;8222;51.462;12.630;2022-12-05T09:20:17;8.00;99.90
16229;DHT22;8222;51.462;12.630;2022-12-05T09:22:43;7.90;99.90
16229;DHT22;8222;51.462;12.630;2022-12-05T09:25:08;8.00;99.90
16229;DHT22;8222;51.462;12.630;2022-12-05T09:27:36;7.90;99.90
16229;DHT22;8222;51.462;12.630;2022-12-05T09:30:02;8.00;99.90
16229;DHT22;8222;51.462;12.630;2022-12-05T09:32:31;7.80;99.90
16229;DHT22;8222;51.462;12.630;2022-12-05T09:35:01;8.00;99.90
16229;DHT22;8222;51.462;12.630;2022-12-05T09:37:27;8.30;99.90
16229;DHT22;8222;51.462;12.630;2022-12-05T09:39:53;8.00;99.90
16229;DHT22;8222;51.462;12.630;2022-12-05T09:42:28;8.00;99.90
16229;DHT22;8222;51.462;12.630;2022-12-05T09:47:38;8.00;99.90
16229;DHT22;8222;51.462;12.630;2022-12-05T09:50:18;8.00;99.90
16229;DHT22;8222;51.462;12.630;2022-12-05T10:00:48;7.80;99.90
16229;DHT22;8222;51.462;12.630;2022-12-05T10:03:37;7.60;99.90
16229;DHT22;8222;51.462;12.630;2022-12-05T10:06:23;7.60;99.90
16229;DHT22;8222;51.462;12.630;2022-12-05T10:11:40;7.80;99.90
16229;DHT22;8222;51.462;12.630;2022-12-05T10:14:16;7.80;99.90
16229;DHT22;8222;51.462;12.630;2022-12-05T10:16:48;7.60;99.90
16229;DHT22;8222;51.462;12.630;2022-12-05T10:19:19;7.60;99.90
16229;DHT22;8222;51.462;12.630;2022-12-05T10:22:00;8.00;99.90
16229;DHT22;8222;51.462;12.630;2022-12-05T10:24:39;7.60;99.90
16229;DHT22;8222;51.462;12.630;2022-12-05T10:27:07;7.50;99.90
16229;DHT22;8222;51.462;12.630;2022-12-05T10:29:47;7.50;99.90
16229;DHT22;8222;51.462;12.630;2022-12-05T10:32:29;7.50;99.90
16229;DHT22;8222;51.462;12.630;2022-12-05T10:35:09;7.50;99.90
16229;DHT22;8222;51.462;12.630;2022-12-05T10:37:41;7.40;99.90
16229;DHT22;8222;51.462;12.630;2022-12-05T10:40:11;7.40;99.90
16229;DHT22;8222;51.462;12.630;2022-12-05T10:42:39;7.30;99.90
16229;DHT22;8222;51.462;12.630;2022-12-05T10:45:12;7.20;99.90
16229;DHT22;8222;51.462;12.630;2022-12-05T10:47:38;7.30;99.90
16229;DHT22;8222;51.462;12.630;2022-12-05T10:50:19;7.10;99.90
16229;DHT22;8222;51.462;12.630;2022-12-05T10:52:46;7.10;99.90
16229;DHT22;8222;51.462;12.630;2022-12-05T10:55:16;7.20;99.90
16229;DHT22;8222;51.462;12.630;2022-12-05T10:57:43;7.10;99.90
16229;DHT22;8222;51.462;12.630;2022-12-05T11:00:15;7.20;99.90
16229;DHT22;8222;51.462;12.630;2022-12-05T11:02:42;7.20;99.90
16229;DHT22;8222;51.462;12.630;2022-12-05T11:05:10;7.20;99.90
16229;DHT22;8222;51.462;12.630;2022-12-05T11:10:25;7.30;99.90
16229;DHT22;8222;51.462;12.630;2022-12-05T11:12:55;9.40;99.90
16229;DHT22;8222;51.462;12.630;2022-12-05T11:15:24;7.30;99.90
16229;DHT22;8222;51.462;12.630;2022-12-05T11:17:52;7.30;99.90
16229;DHT22;8222;51.462;12.630;2022-12-05T11:22:50;7.40;99.90
16229;DHT22;8222;51.462;12.630;2022-12-05T11:25:30;7.40;99.90
16229;DHT22;8222;51.462;12.630;2022-12-05T11:28:21;7.40;99.90
16229;DHT22;8222;51.462;12.630;2022-12-05T11:33:28;7.50;99.90
16229;DHT22;8222;51.462;12.630;2022-12-05T11:36:00;7.50;99.90
16229;DHT22;8222;51.462;12.630;2022-12-05T11:38:29;7.50;99.90
16229;DHT22;8222;51.462;12.630;2022-12-05T11:47:21;7.60;99.90
16229;DHT22;8222;51.462;12.630;2022-12-05T11:52:56;7.60;99.90
16229;DHT22;8222;51.462;12.630;2022-12-05T11:55:53;7.60;99.90
16229;DHT22;8222;51.462;12.630;2022-12-05T12:09:29;7.50;99.90
16229;DHT22;8222;51.462;12.630;2022-12-05T12:17:41;7.20;99.90
16229;DHT22;8222;51.462;12.630;2022-12-05T12:37:23;7.40;99.90
16229;DHT22;8222;51.462;12.630;2022-12-05T12:51:10;7.40;99.90
16229;DHT22;8222;51.462;12.630;2022-12-05T13:05:07;7.40;99.90
16229;DHT22;8222;51.462;12.630;2022-12-05T13:07:45;7.30;99.90
16229;DHT22;8222;51.462;12.630;2022-12-05T13:10:31;7.20;99.90
16229;DHT22;8222;51.462;12.630;2022-12-05T13:13:01;7.20;99.90
16229;DHT22;8222;51.462;12.630;2022-12-05T13:15:50;6.90;99.90
16229;DHT22;8222;51.462;12.630;2022-12-05T13:18:24;7.20;99.90
16229;DHT22;8222;51.462;12.630;2022-12-05T13:20:55;7.20;99.90
16229;DHT22;8222;51.462;12.630;2022-12-05T13:23:24;7.30;99.90
16229;DHT22;8222;51.462;12.630;2022-12-05T13:25:53;7.10;99.90
16229;DHT22;8222;51.462;12.630;2022-12-05T13:28:29;7.00;99.90
16229;DHT22;8222;51.462;12.630;2022-12-05T13:30:57;7.00;99.90
16229;DHT22;8222;51.462;12.630;2022-12-05T13:33:29;7.00;99.90
16229;DHT22;8222;51.462;12.630;2022-12-05T13:36:04;7.00;99.90
16229;DHT22;8222;51.462;12.630;2022-12-05T13:38:55;7.00;99.90
16229;DHT22;8222;51.462;12.630;2022-12-05T13:41:43;6.90;99.90
16229;DHT22;8222;51.462;12.630;2022-12-05T13:44:37;7.00;99.90
16229;DHT22;8222;51.462;12.630;2022-12-05T13:47:05;7.00;99.90
16229;DHT22;8222;51.462;12.630;2022-12-05T13:49:48;7.00;99.90
16229;DHT22;8222;51.462;12.630;2022-12-05T13:52:22;7.10;99.90
16229;DHT22;8222;51.462;12.630;2022-12-05T13:55:33;7.10;99.90
16229;DHT22;8222;51.462;12.630;2022-12-05T14:00:45;7.50;99.90
16229;DHT22;8222;51.462;12.630;2022-12-05T14:05:53;7.10;99.90
16229;DHT22;8222;51.462;12.630;2022-12-05T14:08:54;7.10;99.90
16229;DHT22;8222;51.462;12.630;2022-12-05T14:11:20;6.80;99.90
16229;DHT22;8222;51.462;12.630;2022-12-05T14:13:46;6.80;99.90
16229;DHT22;8222;51.462;12.630;2022-12-05T14:19:22;6.80;99.90
16229;DHT22;8222;51.462;12.630;2022-12-05T14:24:56;6.80;99.90
16229;DHT22;8222;51.462;12.630;2022-12-05T14:27:44;7.50;99.90
16229;DHT22;8222;51.462;12.630;2022-12-05T14:30:24;6.70;99.90
16229;DHT22;8222;51.462;12.630;2022-12-05T14:32:53;6.70;99.90
16229;DHT22;8222;51.462;12.630;2022-12-05T14:35:30;7.10;99.90
16229;DHT22;8222;51.462;12.630;2022-12-05T14:38:01;6.60;99.90
16229;DHT22;8222;51.462;12.630;2022-12-05T14:43:29;6.80;99.90
16229;DHT22;8222;51.462;12.630;2022-12-05T14:46:04;6.80;99.90
16229;DHT22;8222;51.462;12.630;2022-12-05T14:48:38;6.80;99.90
16229;DHT22;8222;51.462;12.630;2022-12-05T14:51:53;6.90;99.90
16229;DHT22;8222;51.462;12.630;2022-12-05T14:54:15;6.90;99.90
16229;DHT22;8222;51.462;12.630;2022-12-05T14:56:47;6.90;99.90
16229;DHT22;8222;51.462;12.630;2022-12-05T14:59:27;6.90;99.90
16229;DHT22;8222;51.462;12.630;2022-12-05T15:01:59;6.80;99.90
16229;DHT22;8222;51.462;12.630;2022-12-05T15:04:44;6.90;99.90
16229;DHT22;8222;51.462;12.630;2022-12-05T15:07:19;6.70;99.90
16229;DHT22;8222;51.462;12.630;2022-12-05T15:18:33;6.60;99.90
16229;DHT22;8222;51.462;12.630;2022-12-05T15:24:10;7.20;99.90
16229;DHT22;8222;51.462;12.630;2022-12-05T15:26:48;6.80;99.90
16229;DHT22;8222;51.462;12.630;2022-12-05T15:32:02;6.70;99.90
16229;DHT22;8222;51.462;12.630;2022-12-05T15:40:16;6.30;99.90
16229;DHT22;8222;51.462;12.630;2022-12-05T15:42:43;6.20;99.90
16229;DHT22;8222;51.462;12.630;2022-12-05T15:47:48;6.50;99.90
16229;DHT22;8222;51.462;12.630;2022-12-05T15:50:20;6.30;99.90
16229;DHT22;8222;51.462;12.630;2022-12-05T15:52:51;6.30;99.90
16229;DHT22;8222;51.462;12.630;2022-12-05T15:58:01;7.30;99.90
16229;DHT22;8222;51.462;12.630;2022-12-05T16:00:29;6.60;99.90
16229;DHT22;8222;51.462;12.630;2022-12-05T16:02:57;6.50;99.90
16229;DHT22;8222;51.462;12.630;2022-12-05T16:05:34;6.40;99.90
16229;DHT22;8222;51.462;12.630;2022-12-05T16:08:06;6.40;99.90
16229;DHT22;8222;51.462;12.630;2022-12-05T16:10:33;6.20;99.90
16229;DHT22;8222;51.462;12.630;2022-12-05T16:13:16;6.30;99.90
16229;DHT22;8222;51.462;12.630;2022-12-05T16:15:48;6.30;99.90
16229;DHT22;8222;51.462;12.630;2022-12-05T16:18:26;6.20;99.90
16229;DHT22;8222;51.462;12.630;2022-12-05T16:20:55;6.10;99.90
16229;DHT22;8222;51.462;12.630;2022-12-05T16:23:34;6.10;99.90
16229;DHT22;8222;51.462;12.630;2022-12-05T16:26:19;6.00;99.90
16229;DHT22;8222;51.462;12.630;2022-12-05T16:29:01;6.00;99.90
16229;DHT22;8222;51.462;12.630;2022-12-05T16:31:30;6.10;99.90
16229;DHT22;8222;51.462;12.630;2022-12-05T16:34:07;6.10;99.90
16229;DHT22;8222;51.462;12.630;2022-12-05T16:36:45;6.20;99.90
16229;DHT22;8222;51.462;12.630;2022-12-05T16:39:12;6.00;99.90
16229;DHT22;8222;51.462;12.630;2022-12-05T16:41:39;5.90;99.90
16229;DHT22;8222;51.462;12.630;2022-12-05T16:47:24;6.30;99.90
16229;DHT22;8222;51.462;12.630;2022-12-05T16:49:54;5.70;99.90
16229;DHT22;8222;51.462;12.630;2022-12-05T16:52:20;5.70;99.90
16229;DHT22;8222;51.462;12.630;2022-12-05T16:54:48;5.70;99.90
16229;DHT22;8222;51.462;12.630;2022-12-05T16:57:15;5.70;99.90
16229;DHT22;8222;51.462;12.630;2022-12-05T16:59:42;5.60;99.90
16229;DHT22;8222;51.462;12.630;2022-12-05T17:02:16;5.60;99.90
16229;DHT22;8222;51.462;12.630;2022-12-05T17:04:42;5.50;99.90
16229;DHT22;8222;51.462;12.630;2022-12-05T17:07:08;5.40;99.90
16229;DHT22;8222;51.462;12.630;2022-12-05T17:09:34;5.30;99.90
16229;DHT22;8222;51.462;12.630;2022-12-05T17:12:23;5.30;99.90
16229;DHT22;8222;51.462;12.630;2022-12-05T17:14:48;5.10;99.90
16229;DHT22;8222;51.462;12.630;2022-12-05T17:17:16;5.00;99.90
16229;DHT22;8222;51.462;12.630;2022-12-05T17:19:42;5.00;99.90
16229;DHT22;8222;51.462;12.630;2022-12-05T17:22:10;5.00;99.90
16229;DHT22;8222;51.462;12.630;2022-12-05T17:24:36;4.90;99.90
16229;DHT22;8222;51.462;12.630;2022-12-05T17:27:03;4.90;99.90
16229;DHT22;8222;51.462;12.630;2022-12-05T17:29:31;5.00;99.90
16229;DHT22;8222;51.462;12.630;2022-12-05T17:32:04;5.10;99.90
16229;DHT22;8222;51.462;12.630;2022-12-05T17:34:32;5.10;99.90
16229;DHT22;8222;51.462;12.630;2022-12-05T17:36:58;5.60;99.90
16229;DHT22;8222;51.462;12.630;2022-12-05T17:39:24;5.10;99.90
16229;DHT22;8222;51.462;12.630;2022-12-05T17:41:50;5.20;99.90
16229;DHT22;8222;51.462;12.630;2022-12-05T17:44:15;5.10;99.90
16229;DHT22;8222;51.462;12.630;2022-12-05T17:46:44;5.10;99.90
16229;DHT22;8222;51.462;12.630;2022-12-05T17:49:14;5.10;99.90
16229;DHT22;8222;51.462;12.630;2022-12-05T17:51:42;5.00;99.90
16229;DHT22;8222;51.462;12.630;2022-12-05T17:54:11;5.10;99.90
16229;DHT22;8222;51.462;12.630;2022-12-05T17:56:36;5.10;99.90
16229;DHT22;8222;51.462;12.630;2022-12-05T17:59:02;5.10;99.90
16229;DHT22;8222;51.462;12.630;2022-12-05T18:01:27;5.00;99.90
16229;DHT22;8222;51.462;12.630;2022-12-05T18:03:53;5.10;99.90
16229;DHT22;8222;51.462;12.630;2022-12-05T18:06:22;5.00;99.90
16229;DHT22;8222;51.462;12.630;2022-12-05T18:08:47;7.00;99.90
16229;DHT22;8222;51.462;12.630;2022-12-05T18:11:14;5.90;99.90
16229;DHT22;8222;51.462;12.630;2022-12-05T18:13:40;5.30;99.90
16229;DHT22;8222;51.462;12.630;2022-12-05T18:16:06;5.40;99.90
16229;DHT22;8222;51.462;12.630;2022-12-05T18:18:34;5.40;99.90
16229;DHT22;8222;51.462;12.630;2022-12-05T18:21:08;5.50;99.90
16229;DHT22;8222;51.462;12.630;2022-12-05T18:23:35;5.60;99.90
16229;DHT22;8222;51.462;12.630;2022-12-05T18:26:05;5.60;99.90
16229;DHT22;8222;51.462;12.630;2022-12-05T18:28:33;5.60;99.90
16229;DHT22;8222;51.462;12.630;2022-12-05T18:31:15;5.50;99.90
16229;DHT22;8222;51.462;12.630;2022-12-05T18:33:44;5.60;99.90
16229;DHT22;8222;51.462;12.630;2022-12-05T18:36:13;5.60;99.90
16229;DHT22;8222;51.462;12.630;2022-12-05T18:38:52;5.70;99.90
16229;DHT22;8222;51.462;12.630;2022-12-05T18:41:19;5.80;99.90
16229;DHT22;8222;51.462;12.630;2022-12-05T18:43:45;5.80;99.90
16229;DHT22;8222;51.462;12.630;2022-12-05T18:46:10;5.60;99.90
16229;DHT22;8222;51.462;12.630;2022-12-05T18:48:37;5.60;99.90
16229;DHT22;8222;51.462;12.630;2022-12-05T18:51:20;5.80;99.90
16229;DHT22;8222;51.462;12.630;2022-12-05T18:53:47;5.70;99.90
16229;DHT22;8222;51.462;12.630;2022-12-05T18:56:21;5.80;99.90
16229;DHT22;8222;51.462;12.630;2022-12-05T18:58:57;5.80;99.90
16229;DHT22;8222;51.462;12.630;2022-12-05T19:01:27;5.90;99.90
16229;DHT22;8222;51.462;12.630;2022-12-05T19:03:59;5.90;99.90
16229;DHT22;8222;51.462;12.630;2022-12-05T19:06:27;5.70;99.90